createdAt,value
2022-10-04T00:00:47.572Z,0.00
2022-10-04T00:01:47.637Z,0.00
2022-10-04T00:02:47.610Z,0.00
2022-10-04T00:03:47.532Z,0.00
2022-10-04T00:04:48.202Z,0.00
2022-10-04T00:05:48.223Z,0.00
2022-10-04T00:06:47.532Z,0.00
2022-10-04T00:07:47.481Z,0.00
2022-10-04T00:08:47.493Z,0.00
2022-10-04T00:09:47.473Z,0.00
2022-10-04T00:10:47.481Z,0.00
2022-10-04T00:11:47.443Z,0.00
2022-10-04T00:12:47.443Z,0.00
2022-10-04T00:13:47.421Z,0.00
2022-10-04T00:14:47.421Z,0.00
2022-10-04T00:15:47.428Z,0.00
2022-10-04T00:16:47.401Z,0.00
2022-10-04T00:17:47.372Z,0.00
2022-10-04T00:18:47.371Z,0.00
2022-10-04T00:19:47.348Z,0.00
2022-10-04T00:20:47.352Z,0.00
2022-10-04T00:21:47.891Z,0.00
2022-10-04T00:22:47.313Z,0.00
2022-10-04T00:23:47.319Z,0.00
2022-10-04T00:24:47.301Z,0.00
2022-10-04T00:25:47.312Z,0.00
2022-10-04T00:26:47.307Z,0.00
2022-10-04T00:27:47.291Z,0.00
2022-10-04T00:28:47.251Z,0.00
2022-10-04T00:29:47.261Z,0.00
2022-10-04T00:30:47.230Z,0.00
2022-10-04T00:31:47.284Z,0.00
2022-10-04T00:32:47.270Z,0.00
2022-10-04T00:33:47.219Z,0.00
2022-10-04T00:34:47.181Z,0.00
2022-10-04T00:35:47.193Z,0.00
2022-10-04T00:36:47.159Z,0.00
2022-10-04T00:37:47.171Z,0.00
2022-10-04T00:38:47.150Z,0.00
2022-10-04T00:39:47.150Z,0.00
2022-10-04T00:40:47.120Z,0.00
2022-10-04T00:41:47.119Z,0.00
2022-10-04T00:42:47.090Z,0.00
2022-10-04T00:43:47.110Z,0.00
2022-10-04T00:44:47.079Z,0.00
2022-10-04T00:45:47.258Z,0.00
2022-10-04T00:46:47.062Z,0.00
2022-10-04T00:47:47.058Z,0.00
2022-10-04T00:48:47.029Z,0.00
2022-10-04T00:49:47.039Z,0.00
2022-10-04T00:50:47.009Z,0.00
2022-10-04T00:51:47.011Z,0.00
2022-10-04T00:52:46.978Z,0.00
2022-10-04T00:53:46.987Z,0.00
2022-10-04T00:54:46.966Z,0.00
2022-10-04T00:55:46.978Z,0.00
2022-10-04T00:56:46.949Z,0.00
2022-10-04T00:57:46.949Z,0.00
2022-10-04T00:58:46.918Z,0.00
2022-10-04T00:59:46.920Z,0.00
2022-10-04T01:00:46.934Z,0.00
2022-10-04T01:01:46.959Z,0.00
2022-10-04T01:02:46.908Z,0.00
2022-10-04T01:03:47.068Z,0.00
2022-10-04T01:04:46.848Z,0.00
2022-10-04T01:05:47.588Z,0.00
2022-10-04T01:06:46.845Z,0.00
2022-10-04T01:07:46.838Z,0.00
2022-10-04T01:08:46.807Z,0.00
2022-10-04T01:09:46.817Z,0.00
2022-10-04T01:10:46.797Z,0.00
2022-10-04T01:11:46.787Z,0.00
2022-10-04T01:12:46.774Z,0.00
2022-10-04T01:13:46.776Z,0.00
2022-10-04T01:14:46.746Z,0.00
2022-10-04T01:15:46.844Z,0.00
2022-10-04T01:16:46.766Z,0.00
2022-10-04T01:17:46.736Z,0.00
2022-10-04T01:18:46.698Z,0.00
2022-10-04T01:19:46.707Z,0.00
2022-10-04T01:20:46.703Z,0.00
2022-10-04T01:21:46.691Z,0.00
2022-10-04T01:22:46.655Z,0.00
2022-10-04T01:23:46.666Z,0.00
2022-10-04T01:24:46.626Z,0.00
2022-10-04T01:25:46.657Z,0.00
2022-10-04T01:26:46.657Z,0.00
2022-10-04T01:27:47.533Z,0.00
2022-10-04T01:28:46.635Z,0.00
2022-10-04T01:29:46.601Z,0.00
2022-10-04T01:30:46.565Z,0.00
2022-10-04T01:31:46.749Z,0.00
2022-10-04T01:32:46.580Z,0.00
2022-10-04T01:33:46.539Z,0.00
2022-10-04T01:34:46.515Z,0.00
2022-10-04T01:35:46.528Z,0.00
2022-10-04T01:36:46.498Z,0.00
2022-10-04T01:37:46.518Z,0.00
2022-10-04T01:38:46.488Z,0.00
2022-10-04T01:39:46.478Z,0.00
2022-10-04T01:40:46.453Z,0.00
2022-10-04T01:41:46.455Z,0.00
2022-10-04T01:42:46.435Z,0.00
2022-10-04T01:43:46.436Z,0.00
2022-10-04T01:44:46.416Z,0.00
2022-10-04T01:45:46.404Z,0.00
2022-10-04T01:46:46.668Z,0.00
2022-10-04T01:47:46.574Z,0.00
2022-10-04T01:48:46.365Z,0.00
2022-10-04T01:49:46.376Z,0.00
2022-10-04T01:50:46.343Z,0.00
2022-10-04T01:51:46.346Z,0.00
2022-10-04T01:52:46.324Z,0.00
2022-10-04T01:53:46.334Z,0.00
2022-10-04T01:54:46.294Z,0.00
2022-10-04T01:55:46.303Z,0.00
2022-10-04T01:56:46.273Z,0.00
2022-10-04T01:57:46.274Z,0.00
2022-10-04T01:58:46.253Z,0.00
2022-10-04T01:59:46.254Z,0.00
2022-10-04T02:00:46.322Z,0.00
2022-10-04T02:01:46.439Z,0.00
2022-10-04T02:02:46.216Z,0.00
2022-10-04T02:03:46.264Z,0.00
2022-10-04T02:04:46.230Z,0.00
2022-10-04T02:05:46.194Z,0.00
2022-10-04T02:06:46.163Z,0.00
2022-10-04T02:07:46.165Z,0.00
2022-10-04T02:08:46.142Z,0.00
2022-10-04T02:09:46.146Z,0.00
2022-10-04T02:10:46.121Z,0.00
2022-10-04T02:11:46.129Z,0.00
2022-10-04T02:12:46.094Z,0.00
2022-10-04T02:13:46.098Z,0.00
2022-10-04T02:14:46.082Z,0.00
2022-10-04T02:15:46.103Z,0.00
2022-10-04T02:16:46.062Z,0.00
2022-10-04T02:17:46.056Z,0.00
2022-10-04T02:18:46.031Z,0.00
2022-10-04T02:19:46.030Z,0.00
2022-10-04T02:20:46.002Z,0.00
2022-10-04T02:21:46.013Z,0.00
2022-10-04T02:22:45.984Z,0.00
2022-10-04T02:23:45.979Z,0.00
2022-10-04T02:24:45.952Z,0.00
2022-10-04T02:25:45.970Z,0.00
2022-10-04T02:26:45.944Z,0.00
2022-10-04T02:27:46.407Z,0.00
2022-10-04T02:28:45.921Z,0.00
2022-10-04T02:29:45.924Z,0.00
2022-10-04T02:30:45.890Z,0.00
2022-10-04T02:31:46.210Z,0.00
2022-10-04T02:32:45.871Z,0.00
2022-10-04T02:33:45.893Z,0.00
2022-10-04T02:34:45.851Z,0.00
2022-10-04T02:35:45.899Z,0.00
2022-10-04T02:36:45.830Z,0.00
2022-10-04T02:37:45.830Z,0.00
2022-10-04T02:38:45.800Z,0.00
2022-10-04T02:39:45.801Z,0.00
2022-10-04T02:40:45.780Z,0.00
2022-10-04T02:41:45.788Z,0.00
2022-10-04T02:42:45.772Z,0.00
2022-10-04T02:43:45.760Z,0.00
2022-10-04T02:44:45.731Z,0.00
2022-10-04T02:45:45.740Z,0.00
2022-10-04T02:46:45.749Z,0.00
2022-10-04T02:47:45.759Z,0.00
2022-10-04T02:48:45.700Z,0.00
2022-10-04T02:49:45.931Z,0.00
2022-10-04T02:50:45.671Z,0.00
2022-10-04T02:51:45.670Z,0.00
2022-10-04T02:52:45.649Z,0.00
2022-10-04T02:53:45.661Z,0.00
2022-10-04T02:54:45.629Z,0.00
2022-10-04T02:55:45.629Z,0.00
2022-10-04T02:56:45.599Z,0.00
2022-10-04T02:57:45.610Z,0.00
2022-10-04T02:58:45.582Z,0.00
2022-10-04T02:59:45.599Z,0.00
2022-10-04T03:00:45.602Z,0.00
2022-10-04T03:01:45.863Z,0.00
2022-10-04T03:02:45.556Z,0.00
2022-10-04T03:03:45.539Z,0.00
2022-10-04T03:04:45.519Z,0.00
2022-10-04T03:05:45.549Z,0.00
2022-10-04T03:06:46.248Z,0.00
2022-10-04T03:07:45.498Z,0.00
2022-10-04T03:08:45.508Z,0.00
2022-10-04T03:09:45.537Z,0.00
2022-10-04T03:10:45.449Z,0.00
2022-10-04T03:11:45.458Z,0.00
2022-10-04T03:12:45.497Z,0.00
2022-10-04T03:13:45.489Z,0.00
2022-10-04T03:14:45.424Z,0.00
2022-10-04T03:15:45.456Z,0.00
2022-10-04T03:16:45.425Z,0.00
2022-10-04T03:17:45.406Z,0.00
2022-10-04T03:18:45.447Z,0.00
2022-10-04T03:19:45.399Z,0.00
2022-10-04T03:20:45.340Z,0.00
2022-10-04T03:21:45.337Z,0.00
2022-10-04T03:22:47.048Z,0.00
2022-10-04T03:23:45.326Z,0.00
2022-10-04T03:24:45.298Z,0.00
2022-10-04T03:25:45.299Z,0.00
2022-10-04T03:26:45.267Z,0.00
2022-10-04T03:27:45.274Z,0.00
2022-10-04T03:28:45.356Z,0.00
2022-10-04T03:29:45.280Z,0.00
2022-10-04T03:30:45.238Z,0.00
2022-10-04T03:31:45.641Z,0.00
2022-10-04T03:32:45.206Z,0.00
2022-10-04T03:33:45.217Z,0.00
2022-10-04T03:34:45.179Z,0.00
2022-10-04T03:35:45.187Z,0.00
2022-10-04T03:36:45.187Z,0.00
2022-10-04T03:37:45.164Z,0.00
2022-10-04T03:38:45.137Z,0.00
2022-10-04T03:39:45.145Z,0.00
2022-10-04T03:40:45.116Z,0.00
2022-10-04T03:41:45.840Z,0.00
2022-10-04T03:42:45.097Z,0.00
2022-10-04T03:43:45.095Z,0.00
2022-10-04T03:44:45.075Z,0.00
2022-10-04T03:45:45.126Z,0.00
2022-10-04T03:46:45.048Z,0.00
2022-10-04T03:47:45.055Z,0.00
2022-10-04T03:48:45.025Z,0.00
2022-10-04T03:49:50.512Z,0.00
2022-10-04T03:50:46.878Z,0.00
2022-10-04T03:51:45.099Z,0.00
2022-10-04T03:52:45.002Z,0.00
2022-10-04T03:53:44.990Z,0.00
2022-10-04T03:54:44.971Z,0.00
2022-10-04T03:55:44.975Z,0.00
2022-10-04T03:56:44.951Z,0.00
2022-10-04T03:57:44.946Z,0.00
2022-10-04T03:58:44.930Z,0.00
2022-10-04T03:59:44.916Z,0.00
2022-10-04T04:00:44.931Z,0.00
2022-10-04T04:01:45.203Z,0.00
2022-10-04T04:02:46.243Z,0.00
2022-10-04T04:03:44.894Z,0.00
2022-10-04T04:04:44.945Z,0.00
2022-10-04T04:05:44.870Z,0.00
2022-10-04T04:06:44.824Z,0.00
2022-10-04T04:07:45.000Z,0.00
2022-10-04T04:08:44.804Z,0.00
2022-10-04T04:09:44.804Z,0.00
2022-10-04T04:10:45.702Z,0.00
2022-10-04T04:11:44.794Z,0.00
2022-10-04T04:12:44.802Z,0.00
2022-10-04T04:13:44.776Z,0.00
2022-10-04T04:14:45.572Z,0.00
2022-10-04T04:15:44.791Z,0.00
2022-10-04T04:16:44.775Z,0.00
2022-10-04T04:17:44.723Z,0.00
2022-10-04T04:18:44.703Z,0.00
2022-10-04T04:19:44.712Z,0.00
2022-10-04T04:20:44.684Z,0.00
2022-10-04T04:21:44.695Z,0.00
2022-10-04T04:22:44.661Z,0.00
2022-10-04T04:23:44.662Z,0.00
2022-10-04T04:24:44.643Z,0.00
2022-10-04T04:25:44.652Z,0.00
2022-10-04T04:26:44.621Z,0.00
2022-10-04T04:27:44.656Z,0.00
2022-10-04T04:28:44.572Z,0.00
2022-10-04T04:29:44.599Z,0.00
2022-10-04T04:30:44.583Z,0.00
2022-10-04T04:31:45.747Z,0.00
2022-10-04T04:32:44.602Z,0.00
2022-10-04T04:33:44.555Z,0.00
2022-10-04T04:34:44.542Z,0.00
2022-10-04T04:35:44.521Z,0.00
2022-10-04T04:36:44.502Z,0.00
2022-10-04T04:37:45.292Z,0.00
2022-10-04T04:38:44.490Z,0.00
2022-10-04T04:39:44.461Z,0.00
2022-10-04T04:40:44.469Z,0.00
2022-10-04T04:41:49.558Z,0.00
2022-10-04T04:42:45.561Z,0.00
2022-10-04T04:43:44.425Z,0.00
2022-10-04T04:44:44.420Z,0.00
2022-10-04T04:45:44.500Z,0.00
2022-10-04T04:46:44.441Z,0.00
2022-10-04T04:47:44.384Z,0.00
2022-10-04T04:48:44.372Z,0.00
2022-10-04T04:49:44.352Z,0.00
2022-10-04T04:50:44.391Z,0.00
2022-10-04T04:51:44.390Z,0.00
2022-10-04T04:52:45.250Z,0.00
2022-10-04T04:53:44.320Z,0.00
2022-10-04T04:54:44.318Z,0.00
2022-10-04T04:56:02.942Z,0.00
2022-10-04T04:56:45.281Z,0.00
2022-10-04T04:57:44.261Z,0.00
2022-10-04T04:58:44.270Z,0.00
2022-10-04T04:59:44.250Z,0.00
2022-10-04T05:00:44.287Z,0.00
2022-10-04T05:01:44.673Z,0.00
2022-10-04T05:02:44.220Z,0.00
2022-10-04T05:03:44.960Z,0.00
2022-10-04T05:04:44.209Z,0.00
2022-10-04T05:05:44.180Z,0.00
2022-10-04T05:06:44.192Z,0.00
2022-10-04T05:07:44.149Z,0.00
2022-10-04T05:08:44.151Z,0.00
2022-10-04T05:09:44.139Z,4.00
2022-10-04T05:10:44.121Z,4.00
2022-10-04T05:11:44.575Z,4.00
2022-10-04T05:12:44.347Z,4.00
2022-10-04T05:13:44.078Z,8.00
2022-10-04T05:14:44.093Z,4.00
2022-10-04T05:15:44.060Z,8.00
2022-10-04T05:16:44.099Z,8.00
2022-10-04T05:17:44.067Z,12.00
2022-10-04T05:18:44.029Z,12.00
2022-10-04T05:19:43.998Z,12.00
2022-10-04T05:20:44.011Z,16.00
2022-10-04T05:21:44.180Z,20.00
2022-10-04T05:22:43.986Z,20.00
2022-10-04T05:23:43.958Z,24.00
2022-10-04T05:24:43.969Z,28.00
2022-10-04T05:25:44.483Z,32.00
2022-10-04T05:26:43.946Z,32.00
2022-10-04T05:27:43.908Z,40.00
2022-10-04T05:28:43.908Z,44.00
2022-10-04T05:29:43.888Z,48.00
2022-10-04T05:30:43.888Z,52.00
2022-10-04T05:31:45.279Z,56.00
2022-10-04T05:32:43.899Z,64.00
2022-10-04T05:33:43.868Z,64.00
2022-10-04T05:34:43.847Z,72.00
2022-10-04T05:35:43.817Z,76.00
2022-10-04T05:36:43.896Z,88.00
2022-10-04T05:37:43.817Z,88.00
2022-10-04T05:38:43.895Z,100.00
2022-10-04T05:39:43.795Z,108.00
2022-10-04T05:40:43.775Z,116.00
2022-10-04T05:41:44.011Z,124.00
2022-10-04T05:42:43.757Z,136.00
2022-10-04T05:43:43.727Z,148.00
2022-10-04T05:44:43.727Z,156.00
2022-10-04T05:45:43.751Z,172.00
2022-10-04T05:46:44.222Z,180.00
2022-10-04T05:47:43.702Z,196.00
2022-10-04T05:48:43.696Z,208.00
2022-10-04T05:49:43.678Z,224.00
2022-10-04T05:50:43.664Z,236.00
2022-10-04T05:51:43.924Z,252.00
2022-10-04T05:52:44.368Z,264.00
2022-10-04T05:53:44.398Z,276.00
2022-10-04T05:54:43.635Z,292.00
2022-10-04T05:55:43.594Z,308.00
2022-10-04T05:56:43.596Z,324.00
2022-10-04T05:57:43.587Z,336.00
2022-10-04T05:58:43.796Z,348.00
2022-10-04T05:59:43.557Z,360.00
2022-10-04T06:00:43.556Z,376.00
2022-10-04T06:01:43.768Z,388.00
2022-10-04T06:02:43.612Z,396.00
2022-10-04T06:03:43.506Z,408.00
2022-10-04T06:04:43.516Z,416.00
2022-10-04T06:05:43.487Z,428.00
2022-10-04T06:06:43.496Z,452.00
2022-10-04T06:07:43.464Z,472.00
2022-10-04T06:08:43.465Z,496.00
2022-10-04T06:09:43.445Z,532.00
2022-10-04T06:10:43.448Z,560.00
2022-10-04T06:11:43.658Z,596.00
2022-10-04T06:12:44.624Z,640.00
2022-10-04T06:13:44.147Z,676.00
2022-10-04T06:14:43.525Z,716.00
2022-10-04T06:15:43.365Z,740.00
2022-10-04T06:16:43.427Z,764.00
2022-10-04T06:17:43.372Z,788.00
2022-10-04T06:18:43.365Z,808.00
2022-10-04T06:19:43.325Z,832.00
2022-10-04T06:20:43.335Z,844.00
2022-10-04T06:21:43.584Z,844.00
2022-10-04T06:22:43.313Z,868.00
2022-10-04T06:23:43.284Z,896.00
2022-10-04T06:24:43.284Z,920.00
2022-10-04T06:25:43.273Z,944.00
2022-10-04T06:26:43.273Z,972.00
2022-10-04T06:27:43.236Z,980.00
2022-10-04T06:28:43.246Z,984.00
2022-10-04T06:29:43.214Z,992.00
2022-10-04T06:30:43.269Z,1004.00
2022-10-04T06:31:43.434Z,1020.00
2022-10-04T06:32:43.205Z,1032.00
2022-10-04T06:33:43.195Z,1060.00
2022-10-04T06:34:43.204Z,1112.00
2022-10-04T06:35:43.167Z,1172.00
2022-10-04T06:36:43.173Z,1216.00
2022-10-04T06:37:43.206Z,1224.00
2022-10-04T06:38:43.142Z,1244.00
2022-10-04T06:39:43.103Z,1248.00
2022-10-04T06:40:43.145Z,1232.00
2022-10-04T06:41:43.397Z,1232.00
2022-10-04T06:42:43.084Z,1236.00
2022-10-04T06:43:43.064Z,1264.00
2022-10-04T06:44:46.226Z,1296.00
2022-10-04T06:45:43.075Z,1332.00
2022-10-04T06:46:43.072Z,1376.00
2022-10-04T06:47:43.015Z,1428.00
2022-10-04T06:48:43.022Z,1492.00
2022-10-04T06:49:42.992Z,1536.00
2022-10-04T06:50:42.999Z,1564.00
2022-10-04T06:51:43.117Z,1624.00
2022-10-04T06:52:42.970Z,1692.00
2022-10-04T06:53:42.963Z,1736.00
2022-10-04T06:54:42.970Z,1772.00
2022-10-04T06:55:42.949Z,1792.00
2022-10-04T06:56:42.923Z,1828.00
2022-10-04T06:57:42.901Z,1888.00
2022-10-04T06:58:42.920Z,1948.00
2022-10-04T06:59:42.883Z,1972.00
2022-10-04T07:00:42.898Z,2004.00
2022-10-04T07:01:43.185Z,2024.00
2022-10-04T07:02:42.928Z,2056.00
2022-10-04T07:03:42.822Z,2080.00
2022-10-04T07:05:07.146Z,2080.00
2022-10-04T07:05:43.820Z,2100.00
2022-10-04T07:06:42.810Z,2120.00
2022-10-04T07:07:42.780Z,2132.00
2022-10-04T07:08:42.781Z,2172.00
2022-10-04T07:09:42.760Z,2188.00
2022-10-04T07:10:42.760Z,2200.00
2022-10-04T07:11:42.996Z,2236.00
2022-10-04T07:12:42.740Z,2268.00
2022-10-04T07:13:42.711Z,2288.00
2022-10-04T07:14:43.047Z,2300.00
2022-10-04T07:15:42.758Z,2320.00
2022-10-04T07:16:42.691Z,2364.00
2022-10-04T07:17:42.760Z,2408.00
2022-10-04T07:18:42.681Z,2448.00
2022-10-04T07:19:42.640Z,2476.00
2022-10-04T07:20:42.649Z,2488.00
2022-10-04T07:21:45.322Z,2504.00
2022-10-04T07:22:42.629Z,2524.00
2022-10-04T07:23:42.611Z,2632.00
2022-10-04T07:24:42.619Z,2712.00
2022-10-04T07:25:42.580Z,2736.00
2022-10-04T07:26:42.578Z,2688.00
2022-10-04T07:27:42.549Z,2692.00
2022-10-04T07:28:42.562Z,2664.00
2022-10-04T07:29:42.707Z,2676.00
2022-10-04T07:30:42.569Z,2684.00
2022-10-04T07:31:42.879Z,2692.00
2022-10-04T07:32:42.517Z,2740.00
2022-10-04T07:33:42.489Z,2744.00
2022-10-04T07:34:42.495Z,2732.00
2022-10-04T07:35:42.460Z,2712.00
2022-10-04T07:36:42.466Z,2652.00
2022-10-04T07:37:42.439Z,2664.00
2022-10-04T07:38:42.438Z,2684.00
2022-10-04T07:39:42.546Z,2676.00
2022-10-04T07:40:42.420Z,2652.00
2022-10-04T07:41:42.660Z,2628.00
2022-10-04T07:42:42.399Z,2616.00
2022-10-04T07:43:42.368Z,2636.00
2022-10-04T07:44:42.378Z,2636.00
2022-10-04T07:45:42.415Z,2628.00
2022-10-04T07:46:42.351Z,2624.00
2022-10-04T07:47:42.329Z,2640.00
2022-10-04T07:48:42.409Z,2624.00
2022-10-04T07:49:42.300Z,2588.00
2022-10-04T07:50:42.310Z,2548.00
2022-10-04T07:51:42.517Z,2544.00
2022-10-04T07:52:42.296Z,2564.00
2022-10-04T07:53:42.269Z,2608.00
2022-10-04T07:54:42.829Z,2640.00
2022-10-04T07:55:42.249Z,2656.00
2022-10-04T07:56:42.268Z,2672.00
2022-10-04T07:57:42.217Z,2716.00
2022-10-04T07:58:45.795Z,2732.00
2022-10-04T07:59:42.204Z,2772.00
2022-10-04T08:00:42.197Z,2800.00
2022-10-04T08:01:42.649Z,2804.00
2022-10-04T08:02:42.243Z,2872.00
2022-10-04T08:03:42.137Z,2912.00
2022-10-04T08:04:42.138Z,2948.00
2022-10-04T08:05:42.117Z,2968.00
2022-10-04T08:06:42.345Z,2960.00
2022-10-04T08:07:42.107Z,2988.00
2022-10-04T08:08:42.099Z,3008.00
2022-10-04T08:09:42.070Z,3008.00
2022-10-04T08:10:42.080Z,3060.00
2022-10-04T08:11:42.251Z,3096.00
2022-10-04T08:12:42.058Z,3120.00
2022-10-04T08:13:42.024Z,3160.00
2022-10-04T08:14:42.027Z,3128.00
2022-10-04T08:15:42.814Z,3120.00
2022-10-04T08:16:42.393Z,3148.00
2022-10-04T08:17:41.981Z,3176.00
2022-10-04T08:18:42.012Z,3184.00
2022-10-04T08:19:41.948Z,3172.00
2022-10-04T08:20:41.990Z,3176.00
2022-10-04T08:21:41.938Z,3196.00
2022-10-04T08:22:41.938Z,3204.00
2022-10-04T08:23:41.912Z,3216.00
2022-10-04T08:24:41.920Z,3216.00
2022-10-04T08:25:48.948Z,3248.00
2022-10-04T08:26:42.241Z,3264.00
2022-10-04T08:27:41.868Z,3292.00
2022-10-04T08:28:41.877Z,3300.00
2022-10-04T08:29:41.851Z,3300.00
2022-10-04T08:30:41.899Z,3340.00
2022-10-04T08:31:41.820Z,3356.00
2022-10-04T08:32:41.826Z,3316.00
2022-10-04T08:33:42.597Z,3288.00
2022-10-04T08:34:41.820Z,3264.00
2022-10-04T08:35:42.536Z,3248.00
2022-10-04T08:36:42.909Z,3204.00
2022-10-04T08:37:42.597Z,3156.00
2022-10-04T08:38:41.795Z,3080.00
2022-10-04T08:39:41.752Z,2988.00
2022-10-04T08:40:41.754Z,2912.00
2022-10-04T08:41:41.716Z,2792.00
2022-10-04T08:42:41.743Z,2676.00
2022-10-04T08:43:41.695Z,2508.00
2022-10-04T08:44:41.693Z,2400.00
2022-10-04T08:45:41.691Z,2348.00
2022-10-04T08:46:42.142Z,2264.00
2022-10-04T08:47:41.786Z,2200.00
2022-10-04T08:48:41.648Z,2216.00
2022-10-04T08:49:41.617Z,2312.00
2022-10-04T08:50:41.647Z,2476.00
2022-10-04T08:51:41.597Z,2724.00
2022-10-04T08:52:41.591Z,3024.00
2022-10-04T08:53:41.590Z,3316.00
2022-10-04T08:54:41.606Z,3536.00
2022-10-04T08:55:41.584Z,3688.00
2022-10-04T08:56:42.629Z,3788.00
2022-10-04T08:57:41.546Z,3920.00
2022-10-04T08:58:41.525Z,3976.00
2022-10-04T08:59:41.521Z,3992.00
2022-10-04T09:00:41.483Z,4036.00
2022-10-04T09:01:41.534Z,4036.00
2022-10-04T09:02:41.498Z,4104.00
2022-10-04T09:03:41.468Z,4100.00
2022-10-04T09:04:41.439Z,4012.00
2022-10-04T09:05:41.438Z,3976.00
2022-10-04T09:06:41.770Z,3860.00
2022-10-04T09:07:41.417Z,3744.00
2022-10-04T09:08:41.399Z,3548.00
2022-10-04T09:09:41.395Z,3496.00
2022-10-04T09:10:41.368Z,3380.00
2022-10-04T09:11:41.377Z,3220.00
2022-10-04T09:12:41.347Z,3008.00
2022-10-04T09:13:41.364Z,2896.00
2022-10-04T09:14:41.327Z,2896.00
2022-10-04T09:15:41.381Z,2736.00
2022-10-04T09:16:42.523Z,2632.00
2022-10-04T09:17:41.322Z,2716.00
2022-10-04T09:18:41.298Z,2596.00
2022-10-04T09:19:41.287Z,2648.00
2022-10-04T09:20:41.293Z,2588.00
2022-10-04T09:21:41.287Z,2980.00
2022-10-04T09:22:41.238Z,2672.00
2022-10-04T09:23:41.259Z,2424.00
2022-10-04T09:24:41.216Z,2100.00
2022-10-04T09:25:41.228Z,1888.00
2022-10-04T09:26:41.547Z,1736.00
2022-10-04T09:27:56.345Z,1496.00
2022-10-04T09:28:42.190Z,1780.00
2022-10-04T09:29:41.182Z,1468.00
2022-10-04T09:30:41.219Z,1432.00
2022-10-04T09:31:41.140Z,1724.00
2022-10-04T09:32:41.119Z,1512.00
2022-10-04T09:33:41.120Z,1356.00
2022-10-04T09:34:41.108Z,1332.00
2022-10-04T09:35:41.111Z,1328.00
2022-10-04T09:36:41.357Z,1364.00
2022-10-04T09:37:41.096Z,1560.00
2022-10-04T09:38:41.864Z,1460.00
2022-10-04T09:39:41.048Z,1504.00
2022-10-04T09:40:45.339Z,1996.00
2022-10-04T09:41:42.040Z,2060.00
2022-10-04T09:42:41.007Z,1596.00
2022-10-04T09:43:40.997Z,1616.00
2022-10-04T09:44:40.978Z,1528.00
2022-10-04T09:45:40.979Z,1528.00
2022-10-04T09:46:41.402Z,1796.00
2022-10-04T09:47:40.968Z,1552.00
2022-10-04T09:48:40.928Z,1636.00
2022-10-04T09:49:40.935Z,1892.00
2022-10-04T09:50:40.898Z,1928.00
2022-10-04T09:51:40.907Z,1868.00
2022-10-04T09:52:41.438Z,1820.00
2022-10-04T09:53:40.902Z,1788.00
2022-10-04T09:54:44.346Z,1796.00
2022-10-04T09:55:40.857Z,1764.00
2022-10-04T09:56:41.224Z,1704.00
2022-10-04T09:57:41.608Z,1648.00
2022-10-04T09:58:41.218Z,1240.00
2022-10-04T09:59:40.818Z,1712.00
2022-10-04T10:00:40.826Z,1492.00
2022-10-04T10:01:40.905Z,1144.00
2022-10-04T10:02:40.824Z,1692.00
2022-10-04T10:03:40.768Z,1696.00
2022-10-04T10:04:40.748Z,1292.00
2022-10-04T10:05:40.778Z,1644.00
2022-10-04T10:06:40.991Z,1692.00
2022-10-04T10:07:40.724Z,1720.00
2022-10-04T10:08:40.737Z,1692.00
2022-10-04T10:09:40.698Z,1688.00
2022-10-04T10:10:40.678Z,1684.00
2022-10-04T10:11:40.982Z,1680.00
2022-10-04T10:12:40.665Z,1672.00
2022-10-04T10:13:40.659Z,1660.00
2022-10-04T10:14:40.640Z,1636.00
2022-10-04T10:15:40.712Z,1668.00
2022-10-04T10:16:41.175Z,1640.00
2022-10-04T10:17:40.637Z,1652.00
2022-10-04T10:18:41.353Z,1652.00
2022-10-04T10:19:40.629Z,1652.00
2022-10-04T10:20:40.570Z,1656.00
2022-10-04T10:21:40.804Z,1660.00
2022-10-04T10:22:40.599Z,1664.00
2022-10-04T10:23:40.547Z,1652.00
2022-10-04T10:24:40.518Z,1648.00
2022-10-04T10:25:40.538Z,1660.00
2022-10-04T10:26:40.845Z,1660.00
2022-10-04T10:27:41.068Z,1656.00
2022-10-04T10:28:40.514Z,1656.00
2022-10-04T10:29:40.476Z,1656.00
2022-10-04T10:30:40.445Z,1664.00
2022-10-04T10:31:43.505Z,1668.00
2022-10-04T10:32:41.428Z,1664.00
2022-10-04T10:33:40.438Z,1660.00
2022-10-04T10:34:40.407Z,1660.00
2022-10-04T10:35:40.419Z,1656.00
2022-10-04T10:36:40.378Z,1652.00
2022-10-04T10:37:40.418Z,1656.00
2022-10-04T10:38:41.219Z,1656.00
2022-10-04T10:39:40.380Z,1652.00
2022-10-04T10:40:40.340Z,1656.00
2022-10-04T10:41:40.340Z,1656.00
2022-10-04T10:42:40.329Z,1660.00
2022-10-04T10:43:40.332Z,1660.00
2022-10-04T10:44:40.309Z,1660.00
2022-10-04T10:45:40.315Z,1660.00
2022-10-04T10:46:40.302Z,1664.00
2022-10-04T10:47:40.269Z,1664.00
2022-10-04T10:48:40.259Z,1664.00
2022-10-04T10:49:40.283Z,1664.00
2022-10-04T10:50:40.227Z,1664.00
2022-10-04T10:51:40.230Z,1676.00
2022-10-04T10:52:40.207Z,1668.00
2022-10-04T10:53:40.208Z,1668.00
2022-10-04T10:54:40.201Z,1668.00
2022-10-04T10:55:41.004Z,1668.00
2022-10-04T10:56:40.161Z,1668.00
2022-10-04T10:57:40.161Z,1672.00
2022-10-04T10:58:41.090Z,1676.00
2022-10-04T10:59:40.910Z,1676.00
2022-10-04T11:00:40.914Z,1676.00
2022-10-04T11:01:40.205Z,1676.00
2022-10-04T11:02:49.875Z,1676.00
2022-10-04T11:03:41.130Z,1680.00
2022-10-04T11:04:40.717Z,1676.00
2022-10-04T11:05:40.709Z,1672.00
2022-10-04T11:06:40.299Z,1676.00
2022-10-04T11:07:40.039Z,1676.00
2022-10-04T11:08:40.013Z,1676.00
2022-10-04T11:09:40.029Z,1680.00
2022-10-04T11:10:40.011Z,1680.00
2022-10-04T11:11:39.998Z,1684.00
2022-10-04T11:12:39.981Z,1692.00
2022-10-04T11:13:39.983Z,1692.00
2022-10-04T11:14:39.960Z,1688.00
2022-10-04T11:15:40.020Z,1688.00
2022-10-04T11:16:39.941Z,1688.00
2022-10-04T11:17:40.692Z,1684.00
2022-10-04T11:18:39.911Z,1684.00
2022-10-04T11:19:40.617Z,1688.00
2022-10-04T11:20:40.799Z,1688.00
2022-10-04T11:21:39.900Z,1692.00
2022-10-04T11:22:40.000Z,1688.00
2022-10-04T11:23:39.860Z,1692.00
2022-10-04T11:24:39.861Z,1696.00
2022-10-04T11:25:39.844Z,1700.00
2022-10-04T11:26:39.812Z,1696.00
2022-10-04T11:27:39.810Z,1696.00
2022-10-04T11:28:40.099Z,1696.00
2022-10-04T11:29:39.791Z,1696.00
2022-10-04T11:30:39.761Z,1696.00
2022-10-04T11:31:39.799Z,1696.00
2022-10-04T11:32:39.741Z,1696.00
2022-10-04T11:33:39.741Z,1696.00
2022-10-04T11:34:39.720Z,1700.00
2022-10-04T11:35:39.773Z,1708.00
2022-10-04T11:36:39.697Z,1704.00
2022-10-04T11:37:39.702Z,1708.00
2022-10-04T11:38:39.671Z,1708.00
2022-10-04T11:39:42.558Z,1716.00
2022-10-04T11:40:40.394Z,1708.00
2022-10-04T11:41:39.659Z,1708.00
2022-10-04T11:42:39.631Z,1708.00
2022-10-04T11:43:39.641Z,1712.00
2022-10-04T11:44:39.638Z,1712.00
2022-10-04T11:45:39.611Z,1712.00
2022-10-04T11:46:39.610Z,1712.00
2022-10-04T11:47:39.622Z,1716.00
2022-10-04T11:48:39.612Z,1704.00
2022-10-04T11:49:39.569Z,1712.00
2022-10-04T11:50:39.532Z,1712.00
2022-10-04T11:51:39.541Z,1708.00
2022-10-04T11:52:39.512Z,1716.00
2022-10-04T11:53:39.534Z,1708.00
2022-10-04T11:54:40.328Z,1716.00
2022-10-04T11:55:39.723Z,1716.00
2022-10-04T11:56:39.512Z,1712.00
2022-10-04T11:57:39.484Z,1716.00
2022-10-04T11:58:39.443Z,1720.00
2022-10-04T11:59:39.472Z,1724.00
2022-10-04T12:00:40.264Z,1728.00
2022-10-04T12:01:40.170Z,1736.00
2022-10-04T12:02:39.763Z,1616.00
2022-10-04T12:03:39.477Z,1728.00
2022-10-04T12:04:39.411Z,1772.00
2022-10-04T12:05:39.389Z,1772.00
2022-10-04T12:06:39.347Z,1764.00
2022-10-04T12:07:39.363Z,1760.00
2022-10-04T12:08:39.332Z,1748.00
2022-10-04T12:09:39.342Z,1740.00
2022-10-04T12:10:39.304Z,1728.00
2022-10-04T12:11:39.343Z,1720.00
2022-10-04T12:12:39.288Z,1720.00
2022-10-04T12:13:39.285Z,1704.00
2022-10-04T12:14:39.253Z,1720.00
2022-10-04T12:15:39.267Z,1712.00
2022-10-04T12:16:39.232Z,1716.00
2022-10-04T12:17:39.413Z,1716.00
2022-10-04T12:18:39.217Z,1708.00
2022-10-04T12:19:39.215Z,1708.00
2022-10-04T12:20:40.026Z,1700.00
2022-10-04T12:21:39.217Z,1692.00
2022-10-04T12:22:39.175Z,1684.00
2022-10-04T12:23:39.184Z,1676.00
2022-10-04T12:24:39.143Z,1676.00
2022-10-04T12:25:39.157Z,1676.00
2022-10-04T12:26:39.124Z,1668.00
2022-10-04T12:27:39.163Z,1676.00
2022-10-04T12:28:39.186Z,1672.00
2022-10-04T12:29:39.104Z,1672.00
2022-10-04T12:30:39.072Z,1668.00
2022-10-04T12:31:39.142Z,1668.00
2022-10-04T12:32:39.066Z,1680.00
2022-10-04T12:33:39.054Z,1676.00
2022-10-04T12:34:39.034Z,1676.00
2022-10-04T12:35:39.045Z,1680.00
2022-10-04T12:36:39.015Z,1680.00
2022-10-04T12:37:39.018Z,1676.00